sensor_id;sensor_type;location;lat;lon;timestamp;P1;durP1;ratioP1;P2;durP2;ratioP2
10029;SDS011;5055;52.054;8.524;2023-02-22T00:01:00;0.30;;;0.30;;
10029;SDS011;5055;52.054;8.524;2023-02-22T00:03:35;0.30;;;0.30;;
10029;SDS011;5055;52.054;8.524;2023-02-22T00:06:04;0.40;;;0.40;;
10029;SDS011;5055;52.054;8.524;2023-02-22T00:08:34;0.30;;;0.30;;
10029;SDS011;5055;52.054;8.524;2023-02-22T00:11:04;0.40;;;0.40;;
10029;SDS011;5055;52.054;8.524;2023-02-22T00:13:35;0.30;;;0.30;;
10029;SDS011;5055;52.054;8.524;2023-02-22T00:16:05;0.40;;;0.40;;
10029;SDS011;5055;52.054;8.524;2023-02-22T00:18:35;0.30;;;0.30;;
10029;SDS011;5055;52.054;8.524;2023-02-22T00:21:04;0.40;;;0.40;;
10029;SDS011;5055;52.054;8.524;2023-02-22T00:23:36;0.40;;;0.40;;
10029;SDS011;5055;52.054;8.524;2023-02-22T00:26:08;0.40;;;0.40;;
10029;SDS011;5055;52.054;8.524;2023-02-22T00:28:38;0.30;;;0.30;;
10029;SDS011;5055;52.054;8.524;2023-02-22T00:31:07;0.33;;;0.33;;
10029;SDS011;5055;52.054;8.524;2023-02-22T00:33:38;0.40;;;0.40;;
10029;SDS011;5055;52.054;8.524;2023-02-22T00:36:07;0.30;;;0.30;;
10029;SDS011;5055;52.054;8.524;2023-02-22T00:38:37;0.40;;;0.40;;
10029;SDS011;5055;52.054;8.524;2023-02-22T00:41:06;0.40;;;0.40;;
10029;SDS011;5055;52.054;8.524;2023-02-22T00:43:35;0.40;;;0.40;;
10029;SDS011;5055;52.054;8.524;2023-02-22T00:46:04;0.30;;;0.30;;
10029;SDS011;5055;52.054;8.524;2023-02-22T00:48:32;0.50;;;0.50;;
10029;SDS011;5055;52.054;8.524;2023-02-22T00:51:02;0.30;;;0.30;;
10029;SDS011;5055;52.054;8.524;2023-02-22T00:53:31;0.40;;;0.40;;
10029;SDS011;5055;52.054;8.524;2023-02-22T00:55:59;0.30;;;0.30;;
10029;SDS011;5055;52.054;8.524;2023-02-22T00:58:28;0.30;;;0.30;;
10029;SDS011;5055;52.054;8.524;2023-02-22T01:00:57;0.40;;;0.40;;
10029;SDS011;5055;52.054;8.524;2023-02-22T01:03:26;0.30;;;0.30;;
10029;SDS011;5055;52.054;8.524;2023-02-22T01:05:54;0.40;;;0.40;;
10029;SDS011;5055;52.054;8.524;2023-02-22T01:08:24;0.30;;;0.30;;
10029;SDS011;5055;52.054;8.524;2023-02-22T01:10:55;0.43;;;0.43;;
10029;SDS011;5055;52.054;8.524;2023-02-22T01:13:23;0.30;;;0.30;;
10029;SDS011;5055;52.054;8.524;2023-02-22T01:15:52;0.30;;;0.30;;
10029;SDS011;5055;52.054;8.524;2023-02-22T01:18:22;0.30;;;0.30;;
10029;SDS011;5055;52.054;8.524;2023-02-22T01:20:51;0.30;;;0.30;;
10029;SDS011;5055;52.054;8.524;2023-02-22T01:23:19;0.30;;;0.30;;
10029;SDS011;5055;52.054;8.524;2023-02-22T01:25:50;0.40;;;0.40;;
10029;SDS011;5055;52.054;8.524;2023-02-22T01:28:18;0.37;;;0.37;;
10029;SDS011;5055;52.054;8.524;2023-02-22T01:30:48;0.40;;;0.40;;
10029;SDS011;5055;52.054;8.524;2023-02-22T01:33:17;0.30;;;0.30;;
10029;SDS011;5055;52.054;8.524;2023-02-22T01:35:45;0.40;;;0.40;;
10029;SDS011;5055;52.054;8.524;2023-02-22T01:38:16;0.37;;;0.37;;
10029;SDS011;5055;52.054;8.524;2023-02-22T01:40:45;0.30;;;0.30;;
10029;SDS011;5055;52.054;8.524;2023-02-22T01:43:18;0.40;;;0.40;;
10029;SDS011;5055;52.054;8.524;2023-02-22T01:45:56;0.40;;;0.40;;
10029;SDS011;5055;52.054;8.524;2023-02-22T01:48:37;0.30;;;0.30;;
10029;SDS011;5055;52.054;8.524;2023-02-22T01:51:09;0.30;;;0.30;;
10029;SDS011;5055;52.054;8.524;2023-02-22T01:53:42;0.30;;;0.30;;
10029;SDS011;5055;52.054;8.524;2023-02-22T01:56:15;0.33;;;0.33;;
10029;SDS011;5055;52.054;8.524;2023-02-22T01:58:47;0.43;;;0.43;;
10029;SDS011;5055;52.054;8.524;2023-02-22T02:01:19;0.33;;;0.33;;
10029;SDS011;5055;52.054;8.524;2023-02-22T02:03:49;0.37;;;0.37;;
10029;SDS011;5055;52.054;8.524;2023-02-22T02:06:23;0.40;;;0.40;;
10029;SDS011;5055;52.054;8.524;2023-02-22T02:08:54;0.37;;;0.37;;
10029;SDS011;5055;52.054;8.524;2023-02-22T02:11:29;0.50;;;0.50;;
10029;SDS011;5055;52.054;8.524;2023-02-22T02:14:00;0.40;;;0.40;;
10029;SDS011;5055;52.054;8.524;2023-02-22T02:16:32;0.30;;;0.30;;
10029;SDS011;5055;52.054;8.524;2023-02-22T02:19:05;0.30;;;0.30;;
10029;SDS011;5055;52.054;8.524;2023-02-22T02:21:45;0.40;;;0.40;;
10029;SDS011;5055;52.054;8.524;2023-02-22T02:27:35;0.30;;;0.30;;
10029;SDS011;5055;52.054;8.524;2023-02-22T02:30:30;0.50;;;0.50;;
10029;SDS011;5055;52.054;8.524;2023-02-22T02:33:14;0.40;;;0.40;;
10029;SDS011;5055;52.054;8.524;2023-02-22T02:35:48;0.47;;;0.47;;
10029;SDS011;5055;52.054;8.524;2023-02-22T02:38:29;0.40;;;0.40;;
10029;SDS011;5055;52.054;8.524;2023-02-22T02:41:06;0.40;;;0.40;;
10029;SDS011;5055;52.054;8.524;2023-02-22T02:43:41;0.50;;;0.50;;
10029;SDS011;5055;52.054;8.524;2023-02-22T02:46:14;0.33;;;0.33;;
10029;SDS011;5055;52.054;8.524;2023-02-22T02:48:52;0.33;;;0.33;;
10029;SDS011;5055;52.054;8.524;2023-02-22T02:51:25;0.30;;;0.30;;
10029;SDS011;5055;52.054;8.524;2023-02-22T02:53:57;0.30;;;0.30;;
10029;SDS011;5055;52.054;8.524;2023-02-22T02:56:26;0.40;;;0.40;;
10029;SDS011;5055;52.054;8.524;2023-02-22T02:58:56;0.40;;;0.40;;
10029;SDS011;5055;52.054;8.524;2023-02-22T03:01:30;0.30;;;0.30;;
10029;SDS011;5055;52.054;8.524;2023-02-22T03:04:16;0.40;;;0.40;;
10029;SDS011;5055;52.054;8.524;2023-02-22T03:07:04;0.60;;;0.60;;
10029;SDS011;5055;52.054;8.524;2023-02-22T03:09:51;0.40;;;0.40;;
10029;SDS011;5055;52.054;8.524;2023-02-22T03:12:31;0.40;;;0.40;;
10029;SDS011;5055;52.054;8.524;2023-02-22T03:15:13;0.30;;;0.30;;
10029;SDS011;5055;52.054;8.524;2023-02-22T03:17:52;0.40;;;0.40;;
10029;SDS011;5055;52.054;8.524;2023-02-22T03:20:26;0.40;;;0.40;;
10029;SDS011;5055;52.054;8.524;2023-02-22T03:22:59;0.40;;;0.40;;
10029;SDS011;5055;52.054;8.524;2023-02-22T03:25:33;0.30;;;0.30;;
10029;SDS011;5055;52.054;8.524;2023-02-22T03:28:06;0.43;;;0.43;;
10029;SDS011;5055;52.054;8.524;2023-02-22T03:30:39;0.50;;;0.50;;
10029;SDS011;5055;52.054;8.524;2023-02-22T03:33:13;0.30;;;0.30;;
10029;SDS011;5055;52.054;8.524;2023-02-22T03:35:48;0.30;;;0.30;;
10029;SDS011;5055;52.054;8.524;2023-02-22T03:38:23;0.40;;;0.40;;
10029;SDS011;5055;52.054;8.524;2023-02-22T03:40:55;0.60;;;0.60;;
10029;SDS011;5055;52.054;8.524;2023-02-22T03:43:27;0.30;;;0.30;;
10029;SDS011;5055;52.054;8.524;2023-02-22T03:45:58;0.40;;;0.40;;
10029;SDS011;5055;52.054;8.524;2023-02-22T03:48:30;0.40;;;0.40;;
10029;SDS011;5055;52.054;8.524;2023-02-22T03:51:07;0.37;;;0.37;;
10029;SDS011;5055;52.054;8.524;2023-02-22T03:53:36;0.30;;;0.30;;
10029;SDS011;5055;52.054;8.524;2023-02-22T03:56:04;0.23;;;0.23;;
10029;SDS011;5055;52.054;8.524;2023-02-22T03:58:37;0.30;;;0.30;;
10029;SDS011;5055;52.054;8.524;2023-02-22T04:01:09;0.30;;;0.30;;
10029;SDS011;5055;52.054;8.524;2023-02-22T04:03:39;0.30;;;0.30;;
10029;SDS011;5055;52.054;8.524;2023-02-22T04:06:10;0.30;;;0.30;;
10029;SDS011;5055;52.054;8.524;2023-02-22T04:08:39;0.30;;;0.30;;
10029;SDS011;5055;52.054;8.524;2023-02-22T04:11:09;0.40;;;0.40;;
10029;SDS011;5055;52.054;8.524;2023-02-22T04:13:37;0.40;;;0.40;;
10029;SDS011;5055;52.054;8.524;2023-02-22T04:16:06;0.30;;;0.30;;
10029;SDS011;5055;52.054;8.524;2023-02-22T04:18:34;0.30;;;0.30;;
10029;SDS011;5055;52.054;8.524;2023-02-22T04:21:03;0.30;;;0.30;;
10029;SDS011;5055;52.054;8.524;2023-02-22T04:23:33;0.40;;;0.40;;
10029;SDS011;5055;52.054;8.524;2023-02-22T04:26:01;0.27;;;0.27;;
10029;SDS011;5055;52.054;8.524;2023-02-22T04:28:30;0.40;;;0.40;;
10029;SDS011;5055;52.054;8.524;2023-02-22T04:30:58;0.37;;;0.37;;
10029;SDS011;5055;52.054;8.524;2023-02-22T04:33:27;0.40;;;0.40;;
10029;SDS011;5055;52.054;8.524;2023-02-22T04:35:55;0.30;;;0.30;;
10029;SDS011;5055;52.054;8.524;2023-02-22T04:38:25;0.40;;;0.40;;
10029;SDS011;5055;52.054;8.524;2023-02-22T04:40:54;0.30;;;0.30;;
10029;SDS011;5055;52.054;8.524;2023-02-22T04:43:23;0.30;;;0.30;;
10029;SDS011;5055;52.054;8.524;2023-02-22T04:45:51;0.40;;;0.40;;
10029;SDS011;5055;52.054;8.524;2023-02-22T04:48:20;0.30;;;0.30;;
10029;SDS011;5055;52.054;8.524;2023-02-22T04:50:48;0.40;;;0.40;;
10029;SDS011;5055;52.054;8.524;2023-02-22T04:53:17;0.50;;;0.50;;
10029;SDS011;5055;52.054;8.524;2023-02-22T04:55:45;0.40;;;0.40;;
10029;SDS011;5055;52.054;8.524;2023-02-22T04:58:15;0.40;;;0.40;;
10029;SDS011;5055;52.054;8.524;2023-02-22T05:00:47;0.53;;;0.53;;
10029;SDS011;5055;52.054;8.524;2023-02-22T05:03:16;0.40;;;0.40;;
10029;SDS011;5055;52.054;8.524;2023-02-22T05:05:44;0.50;;;0.50;;
10029;SDS011;5055;52.054;8.524;2023-02-22T05:08:13;0.50;;;0.50;;
10029;SDS011;5055;52.054;8.524;2023-02-22T05:10:41;0.40;;;0.40;;
10029;SDS011;5055;52.054;8.524;2023-02-22T05:13:09;0.40;;;0.40;;
10029;SDS011;5055;52.054;8.524;2023-02-22T05:15:39;0.33;;;0.33;;
10029;SDS011;5055;52.054;8.524;2023-02-22T05:18:08;0.40;;;0.40;;
10029;SDS011;5055;52.054;8.524;2023-02-22T05:20:36;0.47;;;0.47;;
10029;SDS011;5055;52.054;8.524;2023-02-22T05:23:04;0.40;;;0.40;;
10029;SDS011;5055;52.054;8.524;2023-02-22T05:25:33;0.27;;;0.27;;
10029;SDS011;5055;52.054;8.524;2023-02-22T05:28:03;0.40;;;0.40;;
10029;SDS011;5055;52.054;8.524;2023-02-22T05:30:34;0.53;;;0.53;;
10029;SDS011;5055;52.054;8.524;2023-02-22T05:33:06;0.30;;;0.30;;
10029;SDS011;5055;52.054;8.524;2023-02-22T05:35:35;0.40;;;0.40;;
10029;SDS011;5055;52.054;8.524;2023-02-22T05:38:04;0.40;;;0.40;;
10029;SDS011;5055;52.054;8.524;2023-02-22T05:40:33;0.50;;;0.50;;
10029;SDS011;5055;52.054;8.524;2023-02-22T05:43:01;0.47;;;0.47;;
10029;SDS011;5055;52.054;8.524;2023-02-22T05:45:30;0.40;;;0.40;;
10029;SDS011;5055;52.054;8.524;2023-02-22T05:48:02;0.50;;;0.50;;
10029;SDS011;5055;52.054;8.524;2023-02-22T05:50:35;0.60;;;0.60;;
10029;SDS011;5055;52.054;8.524;2023-02-22T05:53:04;0.60;;;0.60;;
10029;SDS011;5055;52.054;8.524;2023-02-22T05:55:32;0.50;;;0.50;;
10029;SDS011;5055;52.054;8.524;2023-02-22T05:58:01;0.43;;;0.43;;
10029;SDS011;5055;52.054;8.524;2023-02-22T06:00:31;0.40;;;0.40;;
10029;SDS011;5055;52.054;8.524;2023-02-22T06:03:00;0.30;;;0.30;;
10029;SDS011;5055;52.054;8.524;2023-02-22T06:05:31;0.50;;;0.50;;
10029;SDS011;5055;52.054;8.524;2023-02-22T06:08:00;0.40;;;0.40;;
10029;SDS011;5055;52.054;8.524;2023-02-22T06:10:30;0.30;;;0.30;;
10029;SDS011;5055;52.054;8.524;2023-02-22T06:12:59;0.40;;;0.40;;
10029;SDS011;5055;52.054;8.524;2023-02-22T06:15:28;0.40;;;0.40;;
10029;SDS011;5055;52.054;8.524;2023-02-22T06:17:57;0.33;;;0.33;;
10029;SDS011;5055;52.054;8.524;2023-02-22T06:20:26;0.30;;;0.30;;
10029;SDS011;5055;52.054;8.524;2023-02-22T06:22:56;0.40;;;0.40;;
10029;SDS011;5055;52.054;8.524;2023-02-22T06:25:27;0.50;;;0.50;;
10029;SDS011;5055;52.054;8.524;2023-02-22T06:28:07;0.37;;;0.37;;
10029;SDS011;5055;52.054;8.524;2023-02-22T06:30:36;0.40;;;0.40;;
10029;SDS011;5055;52.054;8.524;2023-02-22T06:33:04;0.40;;;0.40;;
10029;SDS011;5055;52.054;8.524;2023-02-22T06:35:39;0.40;;;0.40;;
10029;SDS011;5055;52.054;8.524;2023-02-22T06:38:20;0.40;;;0.40;;
10029;SDS011;5055;52.054;8.524;2023-02-22T06:40:55;0.50;;;0.50;;
10029;SDS011;5055;52.054;8.524;2023-02-22T06:43:24;0.40;;;0.40;;
10029;SDS011;5055;52.054;8.524;2023-02-22T06:45:52;0.33;;;0.33;;
10029;SDS011;5055;52.054;8.524;2023-02-22T06:48:24;0.47;;;0.47;;
10029;SDS011;5055;52.054;8.524;2023-02-22T06:50:52;0.50;;;0.50;;
10029;SDS011;5055;52.054;8.524;2023-02-22T06:53:20;0.40;;;0.40;;
10029;SDS011;5055;52.054;8.524;2023-02-22T06:55:49;0.43;;;0.43;;
10029;SDS011;5055;52.054;8.524;2023-02-22T06:58:21;0.40;;;0.40;;
10029;SDS011;5055;52.054;8.524;2023-02-22T07:00:50;0.40;;;0.40;;
10029;SDS011;5055;52.054;8.524;2023-02-22T07:03:18;0.40;;;0.40;;
10029;SDS011;5055;52.054;8.524;2023-02-22T07:05:47;0.50;;;0.50;;
10029;SDS011;5055;52.054;8.524;2023-02-22T07:08:16;0.50;;;0.50;;
10029;SDS011;5055;52.054;8.524;2023-02-22T07:10:44;0.50;;;0.50;;
10029;SDS011;5055;52.054;8.524;2023-02-22T07:13:15;0.40;;;0.40;;
10029;SDS011;5055;52.054;8.524;2023-02-22T07:15:45;0.67;;;0.67;;
10029;SDS011;5055;52.054;8.524;2023-02-22T07:18:14;0.37;;;0.37;;
10029;SDS011;5055;52.054;8.524;2023-02-22T07:20:42;0.40;;;0.40;;
10029;SDS011;5055;52.054;8.524;2023-02-22T07:23:12;0.50;;;0.50;;
10029;SDS011;5055;52.054;8.524;2023-02-22T07:25:41;0.30;;;0.30;;
10029;SDS011;5055;52.054;8.524;2023-02-22T07:28:10;0.50;;;0.50;;
10029;SDS011;5055;52.054;8.524;2023-02-22T07:30:39;0.50;;;0.50;;
10029;SDS011;5055;52.054;8.524;2023-02-22T07:33:10;0.40;;;0.40;;
10029;SDS011;5055;52.054;8.524;2023-02-22T07:35:42;0.40;;;0.40;;
10029;SDS011;5055;52.054;8.524;2023-02-22T07:38:12;0.30;;;0.30;;
10029;SDS011;5055;52.054;8.524;2023-02-22T07:40:42;0.30;;;0.30;;
10029;SDS011;5055;52.054;8.524;2023-02-22T07:43:15;0.50;;;0.50;;
10029;SDS011;5055;52.054;8.524;2023-02-22T07:45:44;0.23;;;0.23;;
10029;SDS011;5055;52.054;8.524;2023-02-22T07:48:17;0.30;;;0.30;;
10029;SDS011;5055;52.054;8.524;2023-02-22T07:50:47;0.50;;;0.50;;
10029;SDS011;5055;52.054;8.524;2023-02-22T07:53:17;0.40;;;0.40;;
10029;SDS011;5055;52.054;8.524;2023-02-22T07:55:46;0.33;;;0.33;;
10029;SDS011;5055;52.054;8.524;2023-02-22T07:58:17;0.30;;;0.30;;
10029;SDS011;5055;52.054;8.524;2023-02-22T08:00:47;0.23;;;0.23;;
10029;SDS011;5055;52.054;8.524;2023-02-22T08:03:18;0.33;;;0.33;;
10029;SDS011;5055;52.054;8.524;2023-02-22T08:05:47;0.47;;;0.47;;
10029;SDS011;5055;52.054;8.524;2023-02-22T08:08:18;0.47;;;0.47;;
10029;SDS011;5055;52.054;8.524;2023-02-22T08:10:47;0.43;;;0.43;;
10029;SDS011;5055;52.054;8.524;2023-02-22T08:13:17;0.30;;;0.30;;
10029;SDS011;5055;52.054;8.524;2023-02-22T08:15:48;0.30;;;0.30;;
10029;SDS011;5055;52.054;8.524;2023-02-22T08:18:20;0.40;;;0.40;;
10029;SDS011;5055;52.054;8.524;2023-02-22T08:20:50;0.33;;;0.33;;
10029;SDS011;5055;52.054;8.524;2023-02-22T08:23:20;0.30;;;0.30;;
10029;SDS011;5055;52.054;8.524;2023-02-22T08:25:50;0.50;;;0.50;;
10029;SDS011;5055;52.054;8.524;2023-02-22T08:28:22;0.30;;;0.30;;
10029;SDS011;5055;52.054;8.524;2023-02-22T08:30:51;0.30;;;0.30;;
10029;SDS011;5055;52.054;8.524;2023-02-22T08:33:21;0.33;;;0.33;;
10029;SDS011;5055;52.054;8.524;2023-02-22T08:35:50;0.30;;;0.30;;
10029;SDS011;5055;52.054;8.524;2023-02-22T08:38:20;0.30;;;0.30;;
10029;SDS011;5055;52.054;8.524;2023-02-22T08:40:49;0.30;;;0.30;;
10029;SDS011;5055;52.054;8.524;2023-02-22T08:43:18;0.40;;;0.40;;
10029;SDS011;5055;52.054;8.524;2023-02-22T08:45:48;0.30;;;0.30;;
10029;SDS011;5055;52.054;8.524;2023-02-22T08:48:19;0.30;;;0.30;;
10029;SDS011;5055;52.054;8.524;2023-02-22T08:50:49;0.30;;;0.30;;
10029;SDS011;5055;52.054;8.524;2023-02-22T08:53:17;0.20;;;0.20;;
10029;SDS011;5055;52.054;8.524;2023-02-22T08:55:46;0.20;;;0.20;;
10029;SDS011;5055;52.054;8.524;2023-02-22T08:58:15;0.30;;;0.30;;
10029;SDS011;5055;52.054;8.524;2023-02-22T09:00:43;0.30;;;0.30;;
10029;SDS011;5055;52.054;8.524;2023-02-22T09:03:13;0.30;;;0.30;;
10029;SDS011;5055;52.054;8.524;2023-02-22T09:05:42;0.30;;;0.30;;
10029;SDS011;5055;52.054;8.524;2023-02-22T09:08:13;0.30;;;0.30;;
10029;SDS011;5055;52.054;8.524;2023-02-22T09:10:42;0.27;;;0.27;;
10029;SDS011;5055;52.054;8.524;2023-02-22T09:13:11;0.30;;;0.30;;
10029;SDS011;5055;52.054;8.524;2023-02-22T09:15:40;0.30;;;0.30;;
10029;SDS011;5055;52.054;8.524;2023-02-22T09:18:09;0.30;;;0.30;;
10029;SDS011;5055;52.054;8.524;2023-02-22T09:20:40;0.20;;;0.20;;
10029;SDS011;5055;52.054;8.524;2023-02-22T09:23:09;0.33;;;0.33;;
10029;SDS011;5055;52.054;8.524;2023-02-22T09:25:41;0.30;;;0.30;;
10029;SDS011;5055;52.054;8.524;2023-02-22T09:28:09;0.30;;;0.30;;
10029;SDS011;5055;52.054;8.524;2023-02-22T09:30:38;0.23;;;0.23;;
10029;SDS011;5055;52.054;8.524;2023-02-22T09:33:07;0.20;;;0.20;;
10029;SDS011;5055;52.054;8.524;2023-02-22T09:35:38;0.40;;;0.40;;
10029;SDS011;5055;52.054;8.524;2023-02-22T09:38:14;0.30;;;0.30;;
10029;SDS011;5055;52.054;8.524;2023-02-22T09:40:46;0.20;;;0.20;;
10029;SDS011;5055;52.054;8.524;2023-02-22T09:43:23;0.30;;;0.30;;
10029;SDS011;5055;52.054;8.524;2023-02-22T09:46:03;0.30;;;0.30;;
10029;SDS011;5055;52.054;8.524;2023-02-22T09:48:57;0.20;;;0.20;;
10029;SDS011;5055;52.054;8.524;2023-02-22T09:51:32;0.30;;;0.30;;
10029;SDS011;5055;52.054;8.524;2023-02-22T09:54:13;0.30;;;0.30;;
10029;SDS011;5055;52.054;8.524;2023-02-22T09:56:54;0.30;;;0.30;;
10029;SDS011;5055;52.054;8.524;2023-02-22T09:59:26;0.30;;;0.30;;
10029;SDS011;5055;52.054;8.524;2023-02-22T10:01:59;0.20;;;0.20;;
10029;SDS011;5055;52.054;8.524;2023-02-22T10:04:38;0.20;;;0.20;;
10029;SDS011;5055;52.054;8.524;2023-02-22T10:07:12;0.20;;;0.20;;
10029;SDS011;5055;52.054;8.524;2023-02-22T10:09:45;0.27;;;0.27;;
10029;SDS011;5055;52.054;8.524;2023-02-22T10:12:21;0.20;;;0.20;;
10029;SDS011;5055;52.054;8.524;2023-02-22T10:15:02;0.20;;;0.20;;
10029;SDS011;5055;52.054;8.524;2023-02-22T10:17:44;0.20;;;0.20;;
10029;SDS011;5055;52.054;8.524;2023-02-22T10:20:20;0.20;;;0.20;;
10029;SDS011;5055;52.054;8.524;2023-02-22T10:23:08;0.30;;;0.30;;
10029;SDS011;5055;52.054;8.524;2023-02-22T10:25:44;0.30;;;0.30;;
10029;SDS011;5055;52.054;8.524;2023-02-22T10:28:22;0.20;;;0.20;;
10029;SDS011;5055;52.054;8.524;2023-02-22T10:30:56;0.30;;;0.30;;
10029;SDS011;5055;52.054;8.524;2023-02-22T10:33:30;0.20;;;0.20;;
10029;SDS011;5055;52.054;8.524;2023-02-22T10:36:03;0.20;;;0.20;;
10029;SDS011;5055;52.054;8.524;2023-02-22T10:38:33;0.30;;;0.30;;
10029;SDS011;5055;52.054;8.524;2023-02-22T10:41:12;0.30;;;0.30;;
10029;SDS011;5055;52.054;8.524;2023-02-22T10:43:51;0.30;;;0.30;;
10029;SDS011;5055;52.054;8.524;2023-02-22T10:46:19;0.30;;;0.30;;
10029;SDS011;5055;52.054;8.524;2023-02-22T10:48:51;0.20;;;0.20;;
10029;SDS011;5055;52.054;8.524;2023-02-22T10:51:23;0.27;;;0.27;;
10029;SDS011;5055;52.054;8.524;2023-02-22T10:53:54;0.30;;;0.30;;
10029;SDS011;5055;52.054;8.524;2023-02-22T10:56:29;0.30;;;0.30;;
10029;SDS011;5055;52.054;8.524;2023-02-22T10:59:01;0.20;;;0.20;;
10029;SDS011;5055;52.054;8.524;2023-02-22T11:01:34;0.20;;;0.20;;
10029;SDS011;5055;52.054;8.524;2023-02-22T11:04:10;0.20;;;0.20;;
10029;SDS011;5055;52.054;8.524;2023-02-22T11:06:40;0.20;;;0.20;;
10029;SDS011;5055;52.054;8.524;2023-02-22T11:09:11;0.20;;;0.20;;
10029;SDS011;5055;52.054;8.524;2023-02-22T11:11:43;0.20;;;0.20;;
10029;SDS011;5055;52.054;8.524;2023-02-22T11:14:26;0.20;;;0.20;;
10029;SDS011;5055;52.054;8.524;2023-02-22T11:16:56;0.20;;;0.20;;
10029;SDS011;5055;52.054;8.524;2023-02-22T11:19:26;0.20;;;0.20;;
10029;SDS011;5055;52.054;8.524;2023-02-22T11:21:57;0.20;;;0.20;;
10029;SDS011;5055;52.054;8.524;2023-02-22T11:24:42;0.20;;;0.20;;
10029;SDS011;5055;52.054;8.524;2023-02-22T11:27:26;0.20;;;0.20;;
10029;SDS011;5055;52.054;8.524;2023-02-22T11:30:08;0.20;;;0.20;;
10029;SDS011;5055;52.054;8.524;2023-02-22T11:32:43;0.10;;;0.10;;
10029;SDS011;5055;52.054;8.524;2023-02-22T11:35:19;0.20;;;0.20;;
10029;SDS011;5055;52.054;8.524;2023-02-22T11:38:08;0.20;;;0.20;;
10029;SDS011;5055;52.054;8.524;2023-02-22T11:40:41;0.20;;;0.20;;
10029;SDS011;5055;52.054;8.524;2023-02-22T11:43:13;0.20;;;0.20;;
10029;SDS011;5055;52.054;8.524;2023-02-22T11:45:57;0.20;;;0.20;;
10029;SDS011;5055;52.054;8.524;2023-02-22T11:48:30;0.30;;;0.30;;
10029;SDS011;5055;52.054;8.524;2023-02-22T11:51:05;0.20;;;0.20;;
10029;SDS011;5055;52.054;8.524;2023-02-22T11:53:46;0.20;;;0.20;;
10029;SDS011;5055;52.054;8.524;2023-02-22T11:56:33;0.20;;;0.20;;
10029;SDS011;5055;52.054;8.524;2023-02-22T11:59:10;0.20;;;0.20;;
10029;SDS011;5055;52.054;8.524;2023-02-22T12:01:49;0.20;;;0.20;;
10029;SDS011;5055;52.054;8.524;2023-02-22T12:04:43;0.20;;;0.20;;
10029;SDS011;5055;52.054;8.524;2023-02-22T12:07:30;0.20;;;0.20;;
10029;SDS011;5055;52.054;8.524;2023-02-22T12:10:14;0.20;;;0.20;;
10029;SDS011;5055;52.054;8.524;2023-02-22T12:12:54;0.20;;;0.20;;
10029;SDS011;5055;52.054;8.524;2023-02-22T12:15:33;0.20;;;0.20;;
10029;SDS011;5055;52.054;8.524;2023-02-22T12:18:09;0.20;;;0.20;;
10029;SDS011;5055;52.054;8.524;2023-02-22T12:20:44;0.20;;;0.20;;
10029;SDS011;5055;52.054;8.524;2023-02-22T12:23:17;0.20;;;0.20;;
10029;SDS011;5055;52.054;8.524;2023-02-22T12:25:56;0.20;;;0.20;;
10029;SDS011;5055;52.054;8.524;2023-02-22T12:28:32;0.20;;;0.20;;
10029;SDS011;5055;52.054;8.524;2023-02-22T12:31:04;0.20;;;0.20;;
10029;SDS011;5055;52.054;8.524;2023-02-22T12:33:44;0.20;;;0.20;;
10029;SDS011;5055;52.054;8.524;2023-02-22T12:36:23;0.20;;;0.20;;
10029;SDS011;5055;52.054;8.524;2023-02-22T12:38:59;0.20;;;0.20;;
10029;SDS011;5055;52.054;8.524;2023-02-22T12:41:33;0.20;;;0.20;;
10029;SDS011;5055;52.054;8.524;2023-02-22T12:44:07;0.20;;;0.20;;
10029;SDS011;5055;52.054;8.524;2023-02-22T12:46:43;0.20;;;0.20;;
10029;SDS011;5055;52.054;8.524;2023-02-22T12:49:18;0.10;;;0.10;;
10029;SDS011;5055;52.054;8.524;2023-02-22T12:51:54;0.20;;;0.20;;
10029;SDS011;5055;52.054;8.524;2023-02-22T12:54:46;0.20;;;0.20;;
10029;SDS011;5055;52.054;8.524;2023-02-22T12:57:24;0.10;;;0.10;;
10029;SDS011;5055;52.054;8.524;2023-02-22T13:00:00;0.20;;;0.20;;
10029;SDS011;5055;52.054;8.524;2023-02-22T13:02:34;0.20;;;0.20;;
10029;SDS011;5055;52.054;8.524;2023-02-22T13:05:13;0.20;;;0.20;;
10029;SDS011;5055;52.054;8.524;2023-02-22T13:07:45;0.20;;;0.20;;
10029;SDS011;5055;52.054;8.524;2023-02-22T13:10:22;0.10;;;0.10;;
10029;SDS011;5055;52.054;8.524;2023-02-22T13:13:01;0.20;;;0.20;;
10029;SDS011;5055;52.054;8.524;2023-02-22T13:15:38;0.20;;;0.20;;
10029;SDS011;5055;52.054;8.524;2023-02-22T13:18:13;0.20;;;0.20;;
10029;SDS011;5055;52.054;8.524;2023-02-22T13:20:51;0.20;;;0.20;;
10029;SDS011;5055;52.054;8.524;2023-02-22T13:23:29;0.10;;;0.10;;
10029;SDS011;5055;52.054;8.524;2023-02-22T13:26:05;0.20;;;0.20;;
10029;SDS011;5055;52.054;8.524;2023-02-22T13:28:40;0.20;;;0.20;;
10029;SDS011;5055;52.054;8.524;2023-02-22T13:31:21;0.20;;;0.20;;
10029;SDS011;5055;52.054;8.524;2023-02-22T13:34:05;0.20;;;0.20;;
10029;SDS011;5055;52.054;8.524;2023-02-22T13:36:55;0.27;;;0.27;;
10029;SDS011;5055;52.054;8.524;2023-02-22T13:45:47;0.20;;;0.20;;
10029;SDS011;5055;52.054;8.524;2023-02-22T13:48:33;0.10;;;0.10;;
10029;SDS011;5055;52.054;8.524;2023-02-22T13:51:17;0.20;;;0.20;;
10029;SDS011;5055;52.054;8.524;2023-02-22T13:54:03;0.10;;;0.10;;
10029;SDS011;5055;52.054;8.524;2023-02-22T13:56:35;0.10;;;0.10;;
10029;SDS011;5055;52.054;8.524;2023-02-22T13:59:21;0.10;;;0.10;;
10029;SDS011;5055;52.054;8.524;2023-02-22T14:01:51;0.10;;;0.10;;
10029;SDS011;5055;52.054;8.524;2023-02-22T14:04:21;0.20;;;0.20;;
10029;SDS011;5055;52.054;8.524;2023-02-22T14:13:12;0.10;;;0.10;;
10029;SDS011;5055;52.054;8.524;2023-02-22T14:18:44;0.10;;;0.10;;
10029;SDS011;5055;52.054;8.524;2023-02-22T14:21:15;0.10;;;0.10;;
10029;SDS011;5055;52.054;8.524;2023-02-22T14:23:46;0.10;;;0.10;;
10029;SDS011;5055;52.054;8.524;2023-02-22T14:26:18;0.10;;;0.10;;
10029;SDS011;5055;52.054;8.524;2023-02-22T14:28:52;0.20;;;0.20;;
10029;SDS011;5055;52.054;8.524;2023-02-22T14:31:24;0.10;;;0.10;;
10029;SDS011;5055;52.054;8.524;2023-02-22T14:34:06;0.10;;;0.10;;
10029;SDS011;5055;52.054;8.524;2023-02-22T14:36:41;0.20;;;0.20;;
10029;SDS011;5055;52.054;8.524;2023-02-22T14:39:21;0.20;;;0.20;;
10029;SDS011;5055;52.054;8.524;2023-02-22T14:41:59;0.20;;;0.20;;
10029;SDS011;5055;52.054;8.524;2023-02-22T14:44:32;0.20;;;0.20;;
10029;SDS011;5055;52.054;8.524;2023-02-22T14:47:06;0.10;;;0.10;;
10029;SDS011;5055;52.054;8.524;2023-02-22T14:49:41;0.20;;;0.20;;
10029;SDS011;5055;52.054;8.524;2023-02-22T14:52:19;0.20;;;0.20;;
10029;SDS011;5055;52.054;8.524;2023-02-22T14:54:51;0.20;;;0.20;;
10029;SDS011;5055;52.054;8.524;2023-02-22T14:57:33;0.20;;;0.20;;
10029;SDS011;5055;52.054;8.524;2023-02-22T15:00:14;0.20;;;0.20;;
10029;SDS011;5055;52.054;8.524;2023-02-22T15:02:57;0.20;;;0.20;;
10029;SDS011;5055;52.054;8.524;2023-02-22T15:05:27;0.20;;;0.20;;
10029;SDS011;5055;52.054;8.524;2023-02-22T15:07:58;0.20;;;0.20;;
10029;SDS011;5055;52.054;8.524;2023-02-22T15:10:29;0.20;;;0.20;;
10029;SDS011;5055;52.054;8.524;2023-02-22T15:13:15;0.20;;;0.20;;
10029;SDS011;5055;52.054;8.524;2023-02-22T15:15:46;0.20;;;0.20;;
10029;SDS011;5055;52.054;8.524;2023-02-22T15:18:20;0.20;;;0.20;;
10029;SDS011;5055;52.054;8.524;2023-02-22T15:20:54;0.20;;;0.20;;
10029;SDS011;5055;52.054;8.524;2023-02-22T15:23:25;0.20;;;0.20;;
10029;SDS011;5055;52.054;8.524;2023-02-22T15:25:58;0.20;;;0.20;;
10029;SDS011;5055;52.054;8.524;2023-02-22T15:28:29;0.20;;;0.20;;
10029;SDS011;5055;52.054;8.524;2023-02-22T15:31:14;0.20;;;0.20;;
10029;SDS011;5055;52.054;8.524;2023-02-22T15:33:50;0.20;;;0.20;;
10029;SDS011;5055;52.054;8.524;2023-02-22T15:36:23;0.20;;;0.20;;
10029;SDS011;5055;52.054;8.524;2023-02-22T15:38:53;0.20;;;0.20;;
10029;SDS011;5055;52.054;8.524;2023-02-22T15:41:27;0.20;;;0.20;;
10029;SDS011;5055;52.054;8.524;2023-02-22T15:44:02;0.30;;;0.30;;
10029;SDS011;5055;52.054;8.524;2023-02-22T15:46:48;0.20;;;0.20;;
10029;SDS011;5055;52.054;8.524;2023-02-22T15:49:20;0.27;;;0.27;;
10029;SDS011;5055;52.054;8.524;2023-02-22T15:52:00;0.20;;;0.20;;
10029;SDS011;5055;52.054;8.524;2023-02-22T15:54:39;0.20;;;0.20;;